Time;durP1;ratioP1;P1;durP2;ratioP2;P2;SDS_P1;SDS_P2;PMS_P1;PMS_P2;Temp;Humidity;BMP_temperature;BMP_pressure;BME280_temperature;BME280_humidity;BME280_pressure;Samples;Min_cycle;Max_cycle;Signal;HPM_P1;HPM_P2
2021/01/26 00:02:13;;;;;;;20.87;14.20;;;3.40;99.90;;;;;;5095593;28;20177;-75
2021/01/26 00:04:39;;;;;;;19.47;14.10;;;3.40;99.90;;;;;;5103341;27;20228;-75
2021/01/26 00:07:05;;;;;;;19.60;15.20;;;3.30;99.90;;;;;;5097762;28;20468;-75
2021/01/26 00:09:31;;;;;;;21.70;14.60;;;3.40;99.90;;;;;;5095027;28;20508;-75
2021/01/26 00:11:57;;;;;;;22.10;14.97;;;3.30;99.90;;;;;;5095561;28;20736;-75
2021/01/26 00:14:22;;;;;;;20.70;13.87;;;3.30;99.90;;;;;;5095120;28;20783;-75
2021/01/26 00:16:48;;;;;;;20.03;15.60;;;3.30;99.90;;;;;;5103706;27;20192;-74
2021/01/26 00:19:14;;;;;;;19.60;15.07;;;3.30;99.90;;;;;;5115823;28;20674;-75
2021/01/26 00:21:40;;;;;;;20.50;15.07;;;3.30;99.90;;;;;;5115113;28;20515;-75
2021/01/26 00:24:06;;;;;;;19.63;14.70;;;3.20;99.90;;;;;;5114856;28;20499;-75
2021/01/26 00:26:33;;;;;;;19.43;14.90;;;3.30;99.90;;;;;;5113379;28;20481;-75
2021/01/26 00:28:58;;;;;;;22.07;15.20;;;3.20;99.90;;;;;;5110859;27;20552;-74
2021/01/26 00:31:24;;;;;;;20.30;13.13;;;3.30;99.90;;;;;;5115514;28;20492;-75
2021/01/26 00:33:49;;;;;;;20.00;14.80;;;3.30;99.90;;;;;;5114786;28;20180;-75
2021/01/26 00:36:15;;;;;;;23.20;15.07;;;3.30;99.90;;;;;;5115319;28;20283;-75
2021/01/26 00:38:40;;;;;;;22.60;14.20;;;3.40;99.90;;;;;;5114324;28;20168;-75
2021/01/26 00:41:06;;;;;;;22.23;14.40;;;3.40;99.90;;;;;;5115094;28;20170;-75
2021/01/26 00:43:31;;;;;;;18.70;14.60;;;3.40;99.90;;;;;;5115094;28;20173;-75
2021/01/26 00:45:57;;;;;;;21.77;15.10;;;3.40;99.90;;;;;;5114709;27;20556;-75
2021/01/26 00:48:22;;;;;;;16.47;13.20;;;3.30;99.90;;;;;;5112863;28;20169;-76
2021/01/26 00:50:48;;;;;;;17.83;14.40;;;3.20;99.90;;;;;;5116166;28;20173;-75
2021/01/26 00:53:14;;;;;;;18.97;15.53;;;3.20;99.90;;;;;;5122266;28;20169;-75
2021/01/26 00:55:40;;;;;;;22.40;14.07;;;3.20;99.90;;;;;;5114828;28;20552;-75
2021/01/26 00:58:06;;;;;;;18.87;14.57;;;3.30;99.90;;;;;;5115299;28;20406;-75
2021/01/26 01:00:34;;;;;;;17.90;13.77;;;3.20;99.90;;;;;;5098036;28;20648;-75
2021/01/26 01:03:00;;;;;;;19.07;14.60;;;3.20;99.90;;;;;;5095150;27;20226;-75
2021/01/26 01:05:26;;;;;;;17.60;14.10;;;3.30;99.90;;;;;;5095555;28;20554;-76
2021/01/26 01:07:53;;;;;;;18.50;15.27;;;3.30;99.90;;;;;;5119644;28;20427;-75
2021/01/26 01:10:21;;;;;;;18.70;13.67;;;3.30;99.90;;;;;;5126890;28;20170;-75
2021/01/26 01:12:47;;;;;;;21.37;14.73;;;3.30;99.90;;;;;;5136385;28;20477;-75
2021/01/26 01:15:15;;;;;;;18.70;14.70;;;3.30;99.90;;;;;;5137327;28;20415;-75
2021/01/26 01:17:41;;;;;;;17.63;14.30;;;3.30;99.90;;;;;;5138524;27;20260;-76
2021/01/26 01:20:08;;;;;;;23.10;14.77;;;3.30;99.90;;;;;;5121929;28;20411;-75
2021/01/26 01:22:33;;;;;;;17.63;13.47;;;3.30;99.90;;;;;;5094748;28;20210;-75
2021/01/26 01:24:59;;;;;;;20.60;13.17;;;3.30;99.90;;;;;;5094100;28;20465;-75
2021/01/26 01:27:25;;;;;;;20.73;14.17;;;3.20;99.90;;;;;;5094691;28;20185;-75
2021/01/26 01:29:50;;;;;;;20.87;14.67;;;3.20;99.90;;;;;;5094620;28;20195;-76
2021/01/26 01:32:16;;;;;;;18.57;13.13;;;3.20;99.90;;;;;;5096836;27;20249;-75
2021/01/26 01:34:42;;;;;;;18.97;14.20;;;3.20;99.90;;;;;;5092378;28;20279;-75
2021/01/26 01:37:08;;;;;;;20.27;14.53;;;3.30;99.90;;;;;;5093486;28;20232;-75
2021/01/26 01:39:33;;;;;;;21.70;14.90;;;3.20;99.90;;;;;;5094674;28;20436;-75
2021/01/26 01:42:04;;;;;;;19.83;15.53;;;3.20;99.90;;;;;;5102914;28;20176;-75
2021/01/26 01:44:30;;;;;;;19.23;14.23;;;3.20;99.90;;;;;;5114018;27;20258;-75
2021/01/26 01:46:59;;;;;;;20.53;14.23;;;3.20;99.90;;;;;;5101446;28;20440;-75
2021/01/26 01:49:30;;;;;;;20.87;13.47;;;3.20;99.90;;;;;;5094071;28;20192;-75
2021/01/26 01:51:57;;;;;;;21.60;15.77;;;3.20;99.90;;;;;;5093788;28;20493;-75
2021/01/26 01:54:34;;;;;;;19.23;15.27;;;3.20;99.90;;;;;;5093363;27;20423;-75
2021/01/26 01:57:06;;;;;;;21.77;16.07;;;3.00;99.90;;;;;;5095262;28;20450;-75
2021/01/26 01:59:43;;;;;;;22.00;16.33;;;3.00;99.90;;;;;;5093610;28;20475;-76
2021/01/26 02:02:11;;;;;;;22.20;15.90;;;3.10;99.90;;;;;;5093933;28;20526;-75
2021/01/26 02:04:38;;;;;;;23.97;16.30;;;3.20;99.90;;;;;;5093131;28;20457;-75
2021/01/26 02:07:05;;;;;;;21.70;15.00;;;3.20;99.90;;;;;;5094223;28;20785;-75
2021/01/26 02:09:33;;;;;;;20.83;15.10;;;3.30;99.90;;;;;;5093553;27;20433;-75
2021/01/26 02:11:59;;;;;;;20.63;14.53;;;3.30;99.90;;;;;;5093150;28;21006;-75
2021/01/26 02:14:28;;;;;;;19.77;14.73;;;3.30;99.90;;;;;;5093464;28;20498;-75
2021/01/26 02:17:03;;;;;;;19.23;13.80;;;3.40;99.90;;;;;;5091997;28;20782;-75
2021/01/26 02:20:01;;;;;;;19.33;14.03;;;3.40;99.90;;;;;;5096345;28;20763;-75
2021/01/26 02:22:35;;;;;;;21.93;14.03;;;3.50;99.90;;;;;;5097674;28;20475;-75
2021/01/26 02:25:22;;;;;;;21.00;13.70;;;3.50;99.90;;;;;;5097354;28;20450;-75
2021/01/26 02:28:27;;;;;;;21.60;14.43;;;3.50;99.90;;;;;;5102371;28;20420;-74
2021/01/26 02:31:30;;;;;;;20.20;13.80;;;3.50;99.90;;;;;;5117915;28;20738;-75
2021/01/26 02:34:33;;;;;;;19.70;14.47;;;3.50;99.90;;;;;;5116983;28;20406;-75
2021/01/26 02:37:14;;;;;;;17.63;12.80;;;3.50;99.90;;;;;;5117431;28;20448;-75
2021/01/26 02:40:07;;;;;;;18.63;12.87;;;3.50;99.90;;;;;;5102067;27;20455;-75
2021/01/26 02:43:00;;;;;;;19.57;13.80;;;3.50;99.90;;;;;;5096900;28;20418;-75
2021/01/26 02:45:34;;;;;;;19.50;13.90;;;3.50;99.90;;;;;;5096290;28;20453;-75
2021/01/26 02:48:35;;;;;;;17.60;13.47;;;3.50;99.90;;;;;;5096777;28;20488;-75
2021/01/26 02:51:22;;;;;;;16.60;12.73;;;3.50;99.90;;;;;;5116579;28;20479;-76
2021/01/26 02:54:03;;;;;;;14.80;12.80;;;3.60;99.90;;;;;;5116954;28;20496;-75
2021/01/26 02:56:44;;;;;;;17.90;13.40;;;3.60;99.90;;;;;;5117132;28;20498;-75
2021/01/26 02:59:28;;;;;;;21.73;13.10;;;3.60;99.90;;;;;;5117251;28;20395;-75
2021/01/26 03:05:24;;;;;;;19.03;13.40;;;3.50;99.90;;;;;;5096041;27;20469;-77
2021/01/26 03:07:54;;;;;;;20.03;12.17;;;3.50;99.90;;;;;;5096507;28;20499;-75
2021/01/26 03:10:23;;;;;;;15.63;12.50;;;3.60;99.90;;;;;;5097488;28;20455;-75
2021/01/26 03:12:57;;;;;;;28.50;13.77;;;3.60;99.90;;;;;;5096785;28;20916;-75
2021/01/26 03:16:18;;;;;;;20.87;12.47;;;3.40;99.90;;;;;;5096530;28;20398;-75
2021/01/26 03:18:59;;;;;;;17.93;12.63;;;3.40;99.90;;;;;;5074346;28;20509;-75
2021/01/26 03:21:26;;;;;;;17.90;12.60;;;3.50;99.90;;;;;;5081734;28;20510;-75
2021/01/26 03:24:05;;;;;;;15.10;11.67;;;3.50;99.90;;;;;;5077217;28;20459;-74
2021/01/26 03:26:34;;;;;;;17.33;12.00;;;3.60;99.90;;;;;;5093652;28;20423;-75
2021/01/26 03:29:03;;;;;;;18.90;13.33;;;3.50;99.90;;;;;;5077239;28;20429;-75
2021/01/26 03:31:45;;;;;;;15.07;11.40;;;3.40;99.90;;;;;;5093532;28;20936;-74
2021/01/26 03:34:10;;;;;;;16.53;12.63;;;3.50;99.90;;;;;;5093357;28;20451;-74
2021/01/26 03:36:37;;;;;;;16.97;11.63;;;3.50;99.90;;;;;;5093691;28;21033;-75
2021/01/26 03:39:04;;;;;;;18.23;11.17;;;3.60;99.90;;;;;;5094209;28;20189;-75
2021/01/26 03:41:30;;;;;;;15.80;11.43;;;3.60;99.90;;;;;;5076653;28;20827;-75
2021/01/26 03:43:56;;;;;;;17.50;12.17;;;3.60;99.90;;;;;;5093718;28;20497;-75
2021/01/26 03:46:40;;;;;;;16.80;11.53;;;3.70;99.90;;;;;;5093851;28;20859;-75
2021/01/26 03:50:02;;;;;;;13.47;11.40;;;3.70;99.90;;;;;;5094379;28;20173;-75
2021/01/26 03:53:08;;;;;;;13.60;10.90;;;3.80;99.90;;;;;;5014103;28;20408;-76
2021/01/26 03:56:03;;;;;;;20.90;11.80;;;3.80;99.90;;;;;;5033206;28;20414;-75
2021/01/26 03:58:43;;;;;;;14.50;9.60;;;3.80;99.90;;;;;;4994142;28;20422;-76
2021/01/26 04:01:24;;;;;;;15.90;10.97;;;3.70;99.90;;;;;;4994840;28;20529;-76
2021/01/26 04:03:55;;;;;;;15.23;10.80;;;3.70;99.90;;;;;;4992312;28;20475;-75
2021/01/26 04:06:25;;;;;;;12.47;10.27;;;3.50;99.90;;;;;;4994594;28;20438;-75
2021/01/26 04:08:55;;;;;;;14.10;10.77;;;3.30;99.90;;;;;;4995742;28;20902;-76
2021/01/26 04:11:35;;;;;;;16.40;10.57;;;3.30;99.90;;;;;;5001247;28;20430;-75
2021/01/26 04:14:13;;;;;;;15.27;11.70;;;3.30;99.90;;;;;;4992584;28;20431;-75
2021/01/26 04:16:49;;;;;;;13.67;10.30;;;3.30;99.90;;;;;;4974951;28;20436;-75
2021/01/26 04:19:21;;;;;;;14.83;11.20;;;3.40;99.90;;;;;;4974225;28;20407;-75
2021/01/26 04:21:48;;;;;;;18.70;11.80;;;3.40;99.90;;;;;;4976641;28;20408;-75
2021/01/26 04:24:14;;;;;;;19.60;11.97;;;3.40;99.90;;;;;;5033644;28;20470;-75
2021/01/26 04:26:40;;;;;;;17.40;10.83;;;3.50;99.90;;;;;;5035616;28;20449;-75
2021/01/26 04:29:06;;;;;;;14.40;11.00;;;3.60;99.90;;;;;;5034395;28;20450;-75
2021/01/26 04:31:31;;;;;;;13.50;11.03;;;3.60;99.90;;;;;;5035422;28;20415;-76
2021/01/26 04:33:57;;;;;;;17.27;10.27;;;3.60;99.90;;;;;;5048200;28;20204;-75
2021/01/26 04:36:24;;;;;;;13.80;10.70;;;3.70;99.90;;;;;;5110053;27;20205;-76
2021/01/26 04:38:50;;;;;;;11.20;8.50;;;3.70;99.90;;;;;;5114927;28;20532;-75
2021/01/26 04:41:23;;;;;;;10.77;7.13;;;3.80;99.90;;;;;;5100969;28;20495;-75
2021/01/26 04:44:07;;;;;;;8.07;6.13;;;3.60;99.90;;;;;;5116155;28;20511;-76
2021/01/26 04:46:51;;;;;;;9.93;6.87;;;3.50;99.90;;;;;;5118689;28;20442;-75
2021/01/26 04:49:51;;;;;;;12.80;7.10;;;3.50;99.90;;;;;;5104392;27;20444;-74
2021/01/26 04:52:28;;;;;;;10.40;7.20;;;3.40;99.90;;;;;;5095348;28;20507;-75
2021/01/26 04:55:05;;;;;;;7.30;5.77;;;3.50;99.90;;;;;;5094864;28;20404;-75
2021/01/26 04:57:57;;;;;;;7.50;5.90;;;3.50;99.90;;;;;;5095622;28;20473;-76
2021/01/26 05:01:02;;;;;;;7.40;6.27;;;3.50;99.90;;;;;;5096756;27;20429;-77
2021/01/26 05:03:49;;;;;;;6.30;5.67;;;3.60;99.90;;;;;;5097044;28;20429;-76
2021/01/26 05:06:18;;;;;;;7.93;6.10;;;3.60;99.90;;;;;;5094822;28;20469;-75
2021/01/26 05:08:49;;;;;;;8.80;6.03;;;3.70;99.90;;;;;;5095564;28;20411;-75
2021/01/26 05:11:18;;;;;;;8.60;5.67;;;3.70;99.90;;;;;;5099309;27;20425;-75
2021/01/26 05:13:49;;;;;;;8.63;6.00;;;3.70;99.90;;;;;;5094380;28;20423;-75
2021/01/26 05:16:25;;;;;;;7.40;5.80;;;3.80;99.90;;;;;;5094513;28;20412;-75
2021/01/26 05:19:13;;;;;;;7.13;5.90;;;3.80;99.90;;;;;;5109718;28;20907;-75
2021/01/26 05:21:54;;;;;;;10.10;6.87;;;3.80;99.90;;;;;;5114572;27;20426;-76
2021/01/26 05:24:46;;;;;;;8.77;6.50;;;3.80;99.90;;;;;;5114621;28;20481;-76
2021/01/26 05:27:12;;;;;;;12.70;6.70;;;3.80;99.90;;;;;;5112954;28;20423;-76
2021/01/26 05:29:37;;;;;;;8.17;6.40;;;3.90;99.90;;;;;;5096129;28;20408;-76
2021/01/26 05:32:06;;;;;;;13.07;7.10;;;3.90;99.90;;;;;;5093958;27;20734;-76
2021/01/26 05:34:34;;;;;;;10.70;7.20;;;3.90;99.90;;;;;;5093402;28;20203;-76
2021/01/26 05:37:03;;;;;;;11.57;7.27;;;3.90;99.90;;;;;;5100901;28;20442;-76
2021/01/26 05:39:42;;;;;;;11.73;8.17;;;4.00;99.90;;;;;;5110290;28;20411;-76
2021/01/26 05:42:11;;;;;;;9.70;7.47;;;4.00;99.90;;;;;;5107872;27;20427;-76
2021/01/26 05:44:37;;;;;;;9.40;7.17;;;3.90;99.90;;;;;;5100657;28;20464;-76
2021/01/26 05:47:26;;;;;;;9.13;6.70;;;3.90;99.90;;;;;;5101364;28;20462;-76
2021/01/26 05:49:52;;;;;;;8.50;7.63;;;3.80;99.90;;;;;;5093616;28;20386;-76
2021/01/26 05:52:19;;;;;;;13.90;8.50;;;3.80;99.90;;;;;;5104690;27;20812;-76
2021/01/26 05:54:49;;;;;;;13.50;7.73;;;3.80;99.90;;;;;;5104992;28;20939;-76
2021/01/26 05:57:27;;;;;;;11.87;7.73;;;3.90;99.90;;;;;;5103485;28;20444;-76
2021/01/26 06:00:16;;;;;;;11.53;7.37;;;3.80;99.90;;;;;;5105422;28;20404;-76
2021/01/26 06:02:42;;;;;;;8.70;7.47;;;3.80;99.90;;;;;;5107296;27;20415;-76
2021/01/26 06:05:14;;;;;;;10.00;7.50;;;3.90;99.90;;;;;;5103764;28;20465;-76
2021/01/26 06:07:39;;;;;;;10.70;7.87;;;3.80;99.90;;;;;;5101718;28;20740;-77
2021/01/26 06:10:21;;;;;;;10.20;6.50;;;3.80;99.90;;;;;;5105228;28;20459;-76
2021/01/26 06:12:53;;;;;;;12.47;7.53;;;3.90;99.90;;;;;;5104850;27;20190;-77
2021/01/26 06:15:25;;;;;;;9.07;7.10;;;3.90;99.90;;;;;;5098690;28;20426;-76
2021/01/26 06:18:06;;;;;;;10.80;7.87;;;3.90;99.90;;;;;;5105697;28;20426;-76
2021/01/26 06:20:32;;;;;;;12.50;9.37;;;3.80;99.90;;;;;;5097783;28;20492;-76
2021/01/26 06:23:13;;;;;;;14.20;7.23;;;3.90;99.90;;;;;;5097542;28;20529;-77
2021/01/26 06:25:41;;;;;;;15.03;8.23;;;3.90;99.90;;;;;;5097109;28;20192;-76
2021/01/26 06:28:30;;;;;;;11.50;6.87;;;3.80;99.90;;;;;;5098803;27;20423;-76
2021/01/26 06:31:13;;;;;;;12.73;8.10;;;3.70;99.90;;;;;;5106169;27;20539;-78
2021/01/26 06:34:16;;;;;;;15.50;7.67;;;3.60;99.90;;;;;;5112176;28;20761;-75
2021/01/26 06:37:26;;;;;;;11.23;8.40;;;3.60;99.90;;;;;;5116771;28;20501;-75
2021/01/26 06:40:14;;;;;;;12.80;7.67;;;3.60;99.90;;;;;;5085298;28;20521;-76
2021/01/26 06:42:49;;;;;;;15.60;6.93;;;3.70;99.90;;;;;;5130791;27;20419;-76
2021/01/26 06:45:23;;;;;;;15.23;8.63;;;3.70;99.90;;;;;;5120266;27;20552;-75
2021/01/26 06:48:27;;;;;;;13.60;8.50;;;3.60;99.90;;;;;;5130624;27;20469;-76
2021/01/26 06:51:06;;;;;;;16.13;7.83;;;3.70;99.90;;;;;;5104682;27;20433;-76
2021/01/26 06:53:50;;;;;;;11.57;7.77;;;3.70;99.90;;;;;;5107334;27;20449;-76
2021/01/26 06:56:44;;;;;;;10.07;7.20;;;3.70;99.90;;;;;;5132399;27;20430;-76
2021/01/26 06:59:21;;;;;;;12.97;7.80;;;3.70;99.90;;;;;;5105643;27;20438;-76
2021/01/26 07:02:04;;;;;;;9.17;6.40;;;3.70;99.90;;;;;;5116268;28;20407;-76
2021/01/26 07:05:02;;;;;;;17.57;7.20;;;3.70;99.90;;;;;;5129887;27;20449;-76
2021/01/26 07:07:43;;;;;;;14.73;8.27;;;3.60;99.90;;;;;;5111089;27;20430;-77
2021/01/26 07:10:26;;;;;;;9.00;7.40;;;3.70;99.90;;;;;;5112639;28;20514;-76
2021/01/26 07:13:21;;;;;;;10.47;7.57;;;3.70;99.90;;;;;;5116936;28;20402;-76
2021/01/26 07:16:24;;;;;;;13.10;7.27;;;3.70;99.90;;;;;;5110054;27;20492;-76
2021/01/26 07:18:53;;;;;;;12.23;7.70;;;3.60;99.90;;;;;;5115348;27;20428;-76
2021/01/26 07:21:55;;;;;;;12.93;6.87;;;3.60;99.90;;;;;;5112831;27;20489;-76
2021/01/26 07:24:32;;;;;;;12.53;7.20;;;3.50;99.90;;;;;;5134074;27;20512;-77
2021/01/26 07:27:15;;;;;;;14.53;7.77;;;3.40;99.90;;;;;;5142860;27;20433;-77
2021/01/26 07:30:09;;;;;;;20.20;8.30;;;3.40;99.90;;;;;;5130283;27;20418;-77
2021/01/26 07:33:12;;;;;;;10.70;7.20;;;3.40;99.90;;;;;;5106847;28;20411;-76
2021/01/26 07:36:11;;;;;;;14.77;7.40;;;3.20;99.90;;;;;;5108566;27;20427;-76
2021/01/26 07:38:46;;;;;;;9.87;7.33;;;3.20;99.90;;;;;;5116572;28;20767;-76
2021/01/26 07:41:35;;;;;;;17.87;8.30;;;3.20;99.90;;;;;;5110886;27;20427;-76
2021/01/26 07:44:20;;;;;;;12.17;8.37;;;3.20;99.90;;;;;;5118475;27;20488;-77
2021/01/26 07:46:51;;;;;;;12.53;8.47;;;3.20;99.90;;;;;;5129517;27;20431;-77
2021/01/26 07:49:20;;;;;;;11.50;7.87;;;3.30;99.90;;;;;;5118185;27;20423;-77
2021/01/26 07:51:52;;;;;;;13.73;9.47;;;3.30;99.90;;;;;;5123266;28;20409;-76
2021/01/26 07:54:32;;;;;;;10.30;8.77;;;3.20;99.90;;;;;;5112581;27;20442;-77
2021/01/26 07:57:02;;;;;;;10.57;8.40;;;3.20;99.90;;;;;;5099650;28;20782;-77
2021/01/26 07:59:50;;;;;;;13.40;7.80;;;3.30;99.90;;;;;;5096393;28;20415;-78
2021/01/26 08:02:24;;;;;;;13.00;8.20;;;3.30;99.90;;;;;;5126372;27;20435;-78
2021/01/26 08:04:50;;;;;;;14.93;8.43;;;3.30;99.90;;;;;;5139723;27;20455;-77
2021/01/26 08:07:25;;;;;;;12.83;9.57;;;3.30;99.90;;;;;;5127762;27;20485;-78
2021/01/26 08:09:53;;;;;;;9.50;8.30;;;3.40;99.90;;;;;;5130228;28;20165;-77
2021/01/26 08:12:37;;;;;;;8.63;7.43;;;3.30;99.90;;;;;;5135118;27;20411;-77
2021/01/26 08:15:20;;;;;;;10.83;7.17;;;3.20;99.90;;;;;;5147456;27;20416;-77
2021/01/26 08:17:47;;;;;;;12.33;8.40;;;3.20;99.90;;;;;;5131209;27;20430;-77
2021/01/26 08:20:15;;;;;;;11.87;8.20;;;3.20;99.90;;;;;;5114987;27;20832;-77
2021/01/26 08:23:03;;;;;;;10.00;8.60;;;3.30;99.90;;;;;;5114248;28;20411;-78
2021/01/26 08:25:35;;;;;;;12.43;8.60;;;3.40;99.90;;;;;;5115043;27;20546;-77
2021/01/26 08:28:10;;;;;;;11.80;7.93;;;3.40;99.90;;;;;;5119665;27;20409;-77
2021/01/26 08:30:35;;;;;;;10.00;8.63;;;3.40;99.90;;;;;;5119828;27;20423;-78
2021/01/26 08:33:07;;;;;;;10.47;7.40;;;3.50;99.90;;;;;;5119920;27;20496;-78
2021/01/26 08:35:36;;;;;;;9.70;7.30;;;3.50;99.90;;;;;;5112776;27;20235;-80
2021/01/26 08:38:03;;;;;;;11.77;7.30;;;3.60;99.90;;;;;;5134751;27;20441;-77
2021/01/26 08:40:28;;;;;;;9.33;6.67;;;3.50;99.90;;;;;;5135721;27;20413;-76
2021/01/26 08:43:03;;;;;;;8.53;7.63;;;3.50;99.90;;;;;;5119198;27;20780;-77
2021/01/26 08:45:28;;;;;;;9.93;7.07;;;3.50;99.90;;;;;;5113464;27;20215;-77
2021/01/26 08:47:55;;;;;;;9.50;7.03;;;3.60;99.90;;;;;;5116221;28;20407;-78
2021/01/26 08:50:26;;;;;;;9.40;7.13;;;3.60;99.90;;;;;;5115269;28;20180;-78
2021/01/26 08:52:56;;;;;;;11.70;8.23;;;3.60;99.90;;;;;;5114995;28;20426;-77
2021/01/26 08:55:37;;;;;;;12.43;8.83;;;3.70;99.90;;;;;;5115218;27;20411;-76
2021/01/26 08:58:03;;;;;;;12.67;8.77;;;3.70;99.90;;;;;;5135303;27;20460;-77
2021/01/26 09:00:45;;;;;;;11.40;8.53;;;3.70;99.90;;;;;;5135634;27;20396;-76
2021/01/26 09:03:29;;;;;;;10.80;7.70;;;3.70;99.90;;;;;;5137795;27;20405;-75
2021/01/26 09:06:09;;;;;;;13.83;8.30;;;3.80;99.90;;;;;;5118487;27;20481;-75
2021/01/26 09:08:41;;;;;;;11.30;8.20;;;3.80;99.90;;;;;;5095555;28;20391;-76
2021/01/26 09:11:33;;;;;;;9.83;6.80;;;3.90;99.90;;;;;;5095207;28;20414;-76
2021/01/26 09:14:28;;;;;;;8.47;7.60;;;3.90;99.90;;;;;;5096320;28;20407;-76
2021/01/26 09:17:11;;;;;;;8.50;7.60;;;3.80;99.90;;;;;;5096251;28;20440;-76
2021/01/26 09:19:44;;;;;;;12.90;8.83;;;3.70;99.90;;;;;;5096403;28;20462;-76
2021/01/26 09:22:18;;;;;;;12.87;8.17;;;3.70;99.90;;;;;;5099382;28;20442;-78
2021/01/26 09:24:44;;;;;;;11.17;8.53;;;3.80;99.90;;;;;;5104777;28;20795;-77
2021/01/26 09:27:26;;;;;;;12.77;8.90;;;3.80;99.90;;;;;;5092522;28;20423;-76
2021/01/26 09:30:15;;;;;;;12.93;9.60;;;3.80;99.90;;;;;;5097362;28;20988;-76
2021/01/26 09:32:44;;;;;;;13.73;10.20;;;3.70;99.90;;;;;;5098362;28;20476;-76
2021/01/26 09:35:24;;;;;;;10.23;8.40;;;3.70;99.90;;;;;;5097381;28;20426;-77
2021/01/26 09:38:24;;;;;;;11.90;8.47;;;3.70;99.90;;;;;;5094769;28;20395;-77
2021/01/26 09:40:57;;;;;;;12.60;8.40;;;3.70;99.90;;;;;;5085485;28;20886;-77
2021/01/26 09:43:35;;;;;;;10.17;7.60;;;3.80;99.90;;;;;;5095013;27;20439;-77
2021/01/26 09:46:08;;;;;;;8.03;7.23;;;3.70;99.90;;;;;;5097987;28;20609;-77
2021/01/26 09:48:39;;;;;;;11.43;8.33;;;3.60;99.90;;;;;;5114524;28;20395;-76
2021/01/26 09:51:13;;;;;;;11.13;8.30;;;3.60;99.90;;;;;;5115347;28;20397;-76
2021/01/26 09:53:40;;;;;;;14.70;8.60;;;3.70;99.90;;;;;;5115045;28;20426;-78
2021/01/26 09:56:07;;;;;;;12.43;9.97;;;3.60;99.90;;;;;;5114254;28;20943;-78
2021/01/26 09:58:33;;;;;;;18.50;10.87;;;3.70;99.90;;;;;;5114959;28;20441;-77
2021/01/26 10:01:00;;;;;;;15.20;9.73;;;3.70;99.90;;;;;;5108285;27;20965;-77
2021/01/26 10:03:26;;;;;;;11.90;9.73;;;3.80;99.90;;;;;;5115014;28;20458;-77
2021/01/26 10:05:56;;;;;;;10.90;8.47;;;3.90;99.90;;;;;;5094400;28;20458;-76
2021/01/26 10:08:31;;;;;;;10.47;7.77;;;3.90;99.90;;;;;;5105177;28;20494;-76
2021/01/26 10:11:18;;;;;;;12.73;8.30;;;3.90;99.90;;;;;;5095416;28;20406;-77
2021/01/26 10:13:46;;;;;;;9.93;7.37;;;3.80;99.90;;;;;;5095006;27;20423;-77
2021/01/26 10:16:26;;;;;;;12.13;7.23;;;3.80;99.90;;;;;;5094447;28;20431;-78
2021/01/26 10:18:54;;;;;;;7.50;6.77;;;3.80;99.90;;;;;;5107323;28;20422;-77
2021/01/26 10:21:28;;;;;;;8.33;7.43;;;3.80;99.90;;;;;;5115237;28;20766;-78
2021/01/26 10:24:06;;;;;;;10.90;7.13;;;3.80;99.90;;;;;;5115408;28;20406;-76
2021/01/26 10:26:42;;;;;;;8.50;7.53;;;3.80;99.90;;;;;;5113293;27;20439;-76
2021/01/26 10:29:12;;;;;;;9.80;7.83;;;3.70;99.90;;;;;;5104000;28;20464;-76
2021/01/26 10:31:54;;;;;;;12.53;9.93;;;3.60;99.90;;;;;;5095264;28;20945;-77
2021/01/26 10:34:24;;;;;;;12.43;8.67;;;3.60;99.90;;;;;;5094643;28;20513;-78
2021/01/26 10:36:50;;;;;;;12.27;9.50;;;3.60;99.90;;;;;;5101298;28;20465;-77
2021/01/26 10:39:26;;;;;;;17.33;10.33;;;3.60;99.90;;;;;;5114518;27;20434;-77
2021/01/26 10:42:27;;;;;;;10.97;9.43;;;3.60;99.90;;;;;;5120302;28;20459;-77
2021/01/26 10:44:54;;;;;;;15.90;10.83;;;3.50;99.90;;;;;;5126495;27;20461;-77
2021/01/26 10:47:35;;;;;;;19.27;10.43;;;3.60;99.90;;;;;;5120535;28;20462;-78
2021/01/26 10:50:06;;;;;;;15.90;11.60;;;3.60;99.90;;;;;;5117823;28;20445;-78
2021/01/26 10:52:42;;;;;;;13.97;11.13;;;3.60;99.90;;;;;;5117365;28;20509;-77
2021/01/26 10:55:11;;;;;;;12.60;10.03;;;3.70;99.90;;;;;;5118127;28;20402;-77
2021/01/26 10:57:39;;;;;;;14.17;9.53;;;3.70;99.90;;;;;;5116518;28;20441;-77
2021/01/26 11:00:07;;;;;;;25.50;10.70;;;3.60;99.90;;;;;;5115859;28;20922;-77
2021/01/26 11:02:33;;;;;;;13.80;9.67;;;3.70;99.90;;;;;;5117636;28;20432;-77
2021/01/26 11:04:58;;;;;;;11.73;9.63;;;3.80;99.90;;;;;;5117964;27;20533;-76
2021/01/26 11:07:24;;;;;;;11.90;9.67;;;3.80;99.90;;;;;;5118866;28;20428;-77
2021/01/26 11:09:49;;;;;;;14.70;9.40;;;3.70;99.90;;;;;;5106192;28;20264;-78
2021/01/26 11:12:18;;;;;;;14.80;10.03;;;3.70;99.90;;;;;;5107828;28;20227;-77
2021/01/26 11:14:44;;;;;;;14.40;10.20;;;3.90;99.90;;;;;;5130607;27;20164;-78
2021/01/26 11:17:10;;;;;;;15.97;9.33;;;3.90;99.90;;;;;;5123803;27;21057;-78
2021/01/26 11:19:35;;;;;;;14.20;9.63;;;3.90;99.90;;;;;;5118288;28;20188;-80
2021/01/26 11:22:10;;;;;;;16.03;11.10;;;3.90;99.90;;;;;;5100977;28;20579;-78
2021/01/26 11:24:42;;;;;;;17.40;12.80;;;4.00;99.90;;;;;;5105967;28;20710;-77
2021/01/26 11:27:08;;;;;;;16.03;11.90;;;4.10;99.90;;;;;;5097621;28;20428;-77
2021/01/26 11:29:33;;;;;;;21.10;13.50;;;4.10;99.90;;;;;;5116609;27;20455;-78
2021/01/26 11:31:59;;;;;;;18.30;12.87;;;4.20;99.90;;;;;;5096684;28;20896;-78
2021/01/26 11:34:24;;;;;;;15.67;12.67;;;4.20;99.90;;;;;;5097337;28;20198;-78
2021/01/26 11:36:50;;;;;;;15.17;12.63;;;4.20;99.90;;;;;;5096920;28;20204;-78
2021/01/26 11:39:15;;;;;;;16.40;12.43;;;4.30;99.90;;;;;;5096766;27;20250;-78
2021/01/26 11:41:41;;;;;;;18.40;14.57;;;4.30;99.90;;;;;;5109588;28;20180;-78
2021/01/26 11:44:07;;;;;;;20.60;13.90;;;4.10;99.90;;;;;;5117026;28;20196;-78
2021/01/26 11:46:32;;;;;;;18.17;13.40;;;4.20;99.90;;;;;;5127714;27;20192;-77
2021/01/26 11:48:58;;;;;;;18.03;13.73;;;4.30;99.90;;;;;;5137735;27;20172;-78
2021/01/26 11:51:23;;;;;;;22.23;14.07;;;4.30;99.90;;;;;;5126108;27;20229;-78
2021/01/26 11:53:49;;;;;;;21.47;13.60;;;4.30;99.90;;;;;;5096519;28;20169;-78
2021/01/26 11:56:16;;;;;;;17.37;13.00;;;4.40;99.90;;;;;;5114257;27;20204;-78
2021/01/26 11:58:42;;;;;;;15.47;12.87;;;4.40;99.90;;;;;;5136014;27;20432;-78
2021/01/26 12:01:08;;;;;;;14.40;11.97;;;4.30;99.90;;;;;;5137391;27;20410;-78
2021/01/26 12:03:34;;;;;;;17.50;13.00;;;4.40;99.90;;;;;;5116629;27;20417;-77
2021/01/26 12:05:59;;;;;;;18.47;12.10;;;4.30;99.90;;;;;;5116838;28;20221;-77
2021/01/26 12:08:25;;;;;;;17.70;12.90;;;4.30;99.90;;;;;;5112004;28;20173;-78
2021/01/26 12:10:50;;;;;;;23.63;13.37;;;4.40;99.90;;;;;;5101509;28;20166;-78
2021/01/26 12:13:16;;;;;;;18.10;13.07;;;4.50;99.90;;;;;;5100146;28;20213;-77
2021/01/26 12:15:42;;;;;;;20.63;13.20;;;4.50;99.90;;;;;;5098927;28;20264;-79
2021/01/26 12:18:09;;;;;;;18.90;12.93;;;4.60;99.90;;;;;;5099343;28;20174;-78
2021/01/26 12:20:35;;;;;;;15.87;12.47;;;4.60;99.90;;;;;;5098999;28;20456;-77
2021/01/26 12:23:01;;;;;;;14.53;12.73;;;4.70;99.90;;;;;;5100894;28;20425;-78
2021/01/26 12:25:29;;;;;;;13.77;12.37;;;4.80;99.90;;;;;;5118091;28;20491;-77
2021/01/26 12:27:55;;;;;;;17.93;13.50;;;4.80;99.90;;;;;;5117582;27;20418;-77
2021/01/26 12:30:22;;;;;;;18.20;13.30;;;4.80;99.90;;;;;;5115513;28;20401;-77
2021/01/26 12:32:47;;;;;;;19.10;12.97;;;5.00;99.90;;;;;;5116477;28;20413;-78
2021/01/26 12:35:28;;;;;;;14.67;11.30;;;4.90;99.90;;;;;;5099627;28;20491;-77
2021/01/26 12:37:54;;;;;;;12.90;11.50;;;4.90;99.90;;;;;;5094795;28;20582;-77
2021/01/26 12:40:20;;;;;;;14.90;10.73;;;4.90;99.90;;;;;;5092927;28;20464;-77
2021/01/26 12:42:46;;;;;;;14.07;10.97;;;4.80;99.90;;;;;;5094637;27;20189;-76
2021/01/26 12:45:13;;;;;;;12.13;10.83;;;4.90;99.90;;;;;;5095040;28;20453;-77
2021/01/26 12:47:38;;;;;;;14.70;10.77;;;4.90;99.90;;;;;;5094040;28;20521;-76
2021/01/26 12:50:06;;;;;;;16.30;10.93;;;4.80;99.90;;;;;;5094521;28;20512;-76
2021/01/26 12:52:32;;;;;;;14.03;10.23;;;4.80;99.90;;;;;;5094312;28;20173;-76
2021/01/26 12:54:57;;;;;;;11.60;10.33;;;4.80;99.90;;;;;;5095546;28;20823;-77
2021/01/26 12:57:23;;;;;;;13.90;9.70;;;4.90;99.90;;;;;;5094281;27;20205;-77
2021/01/26 12:59:51;;;;;;;12.07;10.63;;;4.90;99.90;;;;;;5094563;28;20199;-77
2021/01/26 13:02:17;;;;;;;13.87;10.53;;;4.90;99.90;;;;;;5094059;28;20238;-77
2021/01/26 13:04:43;;;;;;;11.47;9.50;;;4.90;99.90;;;;;;5093875;28;20484;-77
2021/01/26 13:07:08;;;;;;;12.93;10.07;;;4.90;99.90;;;;;;5107464;28;20437;-77
2021/01/26 13:09:34;;;;;;;11.40;10.17;;;4.80;99.90;;;;;;5097037;28;20179;-78
2021/01/26 13:11:59;;;;;;;12.60;10.53;;;4.90;99.90;;;;;;5094503;28;20170;-77
2021/01/26 13:14:25;;;;;;;12.27;9.70;;;4.80;99.90;;;;;;5092635;28;20634;-77
2021/01/26 13:16:50;;;;;;;12.10;10.07;;;4.80;99.90;;;;;;5095070;28;20535;-76
2021/01/26 13:19:16;;;;;;;11.80;9.40;;;4.80;99.90;;;;;;5094997;28;20175;-77
2021/01/26 13:21:41;;;;;;;13.23;10.33;;;4.90;99.90;;;;;;5094503;28;20173;-77